createdAt,value
2022-11-28T00:01:00.931Z,107.79
2022-11-28T00:06:07.720Z,103.60
2022-11-28T00:11:14.843Z,105.27
2022-11-28T00:16:21.719Z,106.96
2022-11-28T00:21:25.117Z,102.01
2022-11-28T00:26:30.040Z,102.35
2022-11-28T00:31:36.518Z,105.64
2022-11-28T00:36:39.920Z,99.83
2022-11-28T00:41:43.986Z,96.95
2022-11-28T00:46:48.635Z,94.93
2022-11-28T00:51:51.867Z,92.11
2022-11-28T00:56:57.367Z,91.33
2022-11-28T01:02:02.008Z,87.68
2022-11-28T01:07:05.269Z,87.91
2022-11-28T01:12:10.823Z,86.68
2022-11-28T01:17:17.665Z,84.95
2022-11-28T01:22:23.351Z,88.22
2022-11-28T01:27:28.854Z,90.56
2022-11-28T01:32:35.684Z,82.85
2022-11-28T01:37:39.410Z,82.62
2022-11-28T01:42:45.121Z,81.06
2022-11-28T01:47:52.972Z,83.71
2022-11-28T01:52:59.034Z,82.56
2022-11-28T01:58:02.676Z,80.33
2022-11-28T02:03:10.986Z,80.28
2022-11-28T02:08:14.247Z,79.77
2022-11-28T02:13:31.270Z,81.53
2022-11-28T02:18:50.412Z,81.55
2022-11-28T02:24:12.587Z,78.22
2022-11-28T02:29:43.425Z,78.40
2022-11-28T02:34:56.385Z,79.70
2022-11-28T02:40:07.598Z,77.74
2022-11-28T02:45:20.879Z,80.17
2022-11-28T02:50:28.525Z,76.81
2022-11-28T02:55:32.173Z,77.65
2022-11-28T03:00:41.360Z,72.15
2022-11-28T03:05:53.023Z,70.51
2022-11-28T03:11:06.150Z,70.27
2022-11-28T03:16:16.772Z,72.79
2022-11-28T03:21:26.910Z,75.29
2022-11-28T03:26:38.852Z,75.03
2022-11-28T03:31:49.630Z,72.30
2022-11-28T03:37:00.882Z,70.72
2022-11-28T03:42:10.780Z,70.48
2022-11-28T03:47:14.071Z,72.48
2022-11-28T03:52:25.264Z,71.21
2022-11-28T03:57:34.505Z,70.67
2022-11-28T04:02:44.653Z,69.44
2022-11-28T04:07:55.491Z,70.39
2022-11-28T04:13:02.701Z,71.07
2022-11-28T04:18:20.009Z,70.95
2022-11-28T04:23:27.205Z,70.05
2022-11-28T04:28:34.221Z,71.83
2022-11-28T04:33:45.202Z,70.04
2022-11-28T04:38:56.496Z,68.75
2022-11-28T04:44:08.959Z,70.29
2022-11-28T04:49:12.844Z,70.18
2022-11-28T04:54:24.004Z,71.50
2022-11-28T04:59:29.539Z,75.12
2022-11-28T05:04:35.946Z,75.71
2022-11-28T05:09:40.555Z,73.75
2022-11-28T05:14:46.218Z,70.90
2022-11-28T05:19:49.759Z,75.00
2022-11-28T05:24:56.492Z,69.70
2022-11-28T05:30:01.913Z,70.14
2022-11-28T05:35:06.363Z,71.37
2022-11-28T05:40:11.300Z,70.20
2022-11-28T05:45:14.599Z,70.95
2022-11-28T05:50:17.859Z,69.75
2022-11-28T05:55:22.555Z,69.29
2022-11-28T06:00:26.095Z,68.93
2022-11-28T06:05:42.725Z,68.09
2022-11-28T06:10:56.691Z,65.62
2022-11-28T06:15:59.925Z,64.91
2022-11-28T06:21:03.815Z,61.72
2022-11-28T06:26:09.412Z,59.23
2022-11-28T06:31:12.969Z,59.84
2022-11-28T06:36:17.507Z,59.45
2022-11-28T06:41:23.120Z,60.04
2022-11-28T06:46:29.072Z,62.74
2022-11-28T06:51:32.461Z,63.77
2022-11-28T06:56:40.700Z,64.98
2022-11-28T07:01:44.115Z,59.41
2022-11-28T07:06:49.971Z,59.05
2022-11-28T07:11:54.555Z,59.37
2022-11-28T07:16:57.858Z,58.75
2022-11-28T07:22:01.291Z,59.30
2022-11-28T07:27:05.905Z,59.41
2022-11-28T07:32:09.279Z,58.68
2022-11-28T07:37:16.613Z,55.57
2022-11-28T07:42:21.296Z,56.42
2022-11-28T07:47:39.394Z,57.00
2022-11-28T07:52:42.669Z,58.56
2022-11-28T07:57:52.054Z,56.93
2022-11-28T08:02:55.402Z,58.71
2022-11-28T08:07:58.815Z,58.21
2022-11-28T08:13:03.575Z,56.91
2022-11-28T08:18:07.162Z,57.63
2022-11-28T08:23:12.963Z,57.09
2022-11-28T08:28:22.332Z,58.70
2022-11-28T08:33:25.740Z,58.59
2022-11-28T08:38:29.085Z,59.11
2022-11-28T08:43:34.837Z,58.66
2022-11-28T08:48:38.518Z,58.74
2022-11-28T08:53:44.002Z,55.96
2022-11-28T08:58:51.960Z,56.68
2022-11-28T09:03:57.838Z,56.84
2022-11-28T09:09:02.070Z,55.53
2022-11-28T09:14:07.018Z,56.71
2022-11-28T09:19:10.856Z,58.21
2022-11-28T09:24:17.237Z,55.52
2022-11-28T09:29:21.868Z,54.74
2022-11-28T09:34:29.991Z,51.87
2022-11-28T09:39:50.139Z,50.34
2022-11-28T09:45:04.467Z,47.26
2022-11-28T09:50:15.395Z,47.32
2022-11-28T09:55:27.672Z,48.28
2022-11-28T10:00:38.187Z,50.37
2022-11-28T10:05:49.720Z,52.32
2022-11-28T10:10:59.658Z,50.40
2022-11-28T10:16:10.588Z,46.35
2022-11-28T10:21:24.459Z,44.58
2022-11-28T10:26:33.747Z,46.56
2022-11-28T10:31:42.645Z,45.95
2022-11-28T10:36:55.512Z,43.49
2022-11-28T10:42:14.004Z,42.17
2022-11-28T10:47:25.330Z,44.96
2022-11-28T10:52:36.047Z,42.25
2022-11-28T10:57:45.216Z,42.36
2022-11-28T11:02:51.178Z,42.74
2022-11-28T11:07:56.695Z,42.63
2022-11-28T11:13:00.969Z,43.00
2022-11-28T11:18:22.213Z,42.15
2022-11-28T11:23:32.776Z,44.80
2022-11-28T11:28:42.705Z,45.20
2022-11-28T11:33:48.702Z,45.20
2022-11-28T11:38:52.285Z,46.10
2022-11-28T11:43:56.048Z,45.26
2022-11-28T11:49:00.845Z,44.70
2022-11-28T11:54:16.598Z,46.34
2022-11-28T11:59:24.380Z,45.40
2022-11-28T12:04:45.778Z,46.56
2022-11-28T12:09:55.058Z,44.76
2022-11-28T12:15:00.566Z,45.69
2022-11-28T12:20:20.105Z,49.14
2022-11-28T12:25:28.428Z,51.17
2022-11-28T12:30:46.805Z,51.43
2022-11-28T12:36:03.419Z,51.73
2022-11-28T12:41:21.084Z,51.29
2022-11-28T12:46:32.375Z,50.98
2022-11-28T12:51:45.354Z,50.24
2022-11-28T12:56:56.241Z,48.39
2022-11-28T13:02:11.878Z,46.13
2022-11-28T13:07:25.821Z,44.71
2022-11-28T13:12:38.748Z,42.03
2022-11-28T13:17:48.290Z,43.75
2022-11-28T13:23:01.273Z,43.19
2022-11-28T13:28:10.177Z,40.47
2022-11-28T13:33:26.815Z,38.74
2022-11-28T13:38:57.438Z,39.25
2022-11-28T13:44:15.699Z,39.54
2022-11-28T13:49:21.535Z,37.79
2022-11-28T13:54:45.688Z,39.00
2022-11-28T13:59:53.453Z,37.81
2022-11-28T14:04:59.976Z,36.23
2022-11-28T14:10:23.122Z,36.22
2022-11-28T14:15:34.658Z,36.69
2022-11-28T14:20:44.880Z,36.34
2022-11-28T14:25:52.560Z,55.84
2022-11-28T14:31:06.378Z,37.59
2022-11-28T14:36:34.671Z,38.12
2022-11-28T14:41:53.098Z,37.62
2022-11-28T14:47:15.525Z,39.71
2022-11-28T14:52:38.626Z,39.61
2022-11-28T14:57:54.681Z,40.77
2022-11-28T15:03:13.311Z,40.44
2022-11-28T15:08:21.867Z,40.20
2022-11-28T15:13:34.445Z,41.94
2022-11-28T15:18:48.231Z,43.11
2022-11-28T15:23:57.222Z,44.94
2022-11-28T15:29:09.142Z,43.70
2022-11-28T15:34:23.548Z,43.96
2022-11-28T15:39:32.204Z,41.20
2022-11-28T15:44:36.583Z,40.71
2022-11-28T15:49:43.124Z,40.93
2022-11-28T15:54:51.494Z,40.93
2022-11-28T15:59:57.261Z,39.06
2022-11-28T16:05:06.308Z,43.16
2022-11-28T16:10:22.101Z,40.76
2022-11-28T16:15:27.942Z,47.67
2022-11-28T16:20:36.307Z,43.29
2022-11-28T16:25:39.591Z,42.53
2022-11-28T16:30:44.728Z,41.84
2022-11-28T16:35:49.397Z,41.71
2022-11-28T16:41:00.845Z,41.75
2022-11-28T16:46:06.564Z,41.85
2022-11-28T16:51:25.420Z,42.96
2022-11-28T16:56:44.076Z,40.18
2022-11-28T17:01:53.134Z,40.34
2022-11-28T17:06:58.388Z,40.38
2022-11-28T17:12:06.004Z,41.07
2022-11-28T17:17:14.315Z,40.46
2022-11-28T17:22:21.549Z,40.33
2022-11-28T17:27:28.922Z,42.61
2022-11-28T17:32:38.236Z,44.85
2022-11-28T17:37:43.934Z,46.11
2022-11-28T17:42:48.629Z,44.79
2022-11-28T17:47:54.343Z,45.57
2022-11-28T17:52:57.718Z,42.49
2022-11-28T17:58:02.461Z,44.39
2022-11-28T18:03:05.751Z,43.83
2022-11-28T18:08:09.161Z,43.62
2022-11-28T18:13:16.343Z,43.42
2022-11-28T18:18:19.804Z,45.30
2022-11-28T18:23:25.597Z,44.97
2022-11-28T18:28:30.343Z,47.52
2022-11-28T18:33:34.962Z,46.52
2022-11-28T18:38:38.560Z,46.10
2022-11-28T18:43:46.198Z,45.46
2022-11-28T18:48:52.116Z,46.33
2022-11-28T18:53:56.615Z,47.65
2022-11-28T18:59:04.286Z,52.70
2022-11-28T19:04:12.244Z,48.66
2022-11-28T19:09:19.180Z,48.54
2022-11-28T19:14:23.918Z,51.66
2022-11-28T19:19:28.244Z,49.40
2022-11-28T19:24:33.989Z,47.77
2022-11-28T19:29:41.556Z,46.29
2022-11-28T19:34:52.334Z,44.57
2022-11-28T19:39:59.746Z,45.13
2022-11-28T19:45:10.510Z,43.07
2022-11-28T19:50:14.015Z,44.48
2022-11-28T19:55:17.462Z,43.23
2022-11-28T20:00:22.710Z,41.46
2022-11-28T20:05:28.409Z,42.14
2022-11-28T20:10:31.696Z,42.17
2022-11-28T20:15:38.932Z,41.09
2022-11-28T20:20:42.396Z,39.48
2022-11-28T20:25:45.714Z,35.67
2022-11-28T20:30:50.685Z,34.34
2022-11-28T20:35:58.480Z,33.64
2022-11-28T20:41:04.646Z,32.78
2022-11-28T20:46:11.131Z,32.25
2022-11-28T20:51:15.753Z,33.48
2022-11-28T20:56:20.825Z,31.70
2022-11-28T21:01:27.131Z,32.54
2022-11-28T21:06:33.228Z,32.86
2022-11-28T21:11:56.343Z,34.55
2022-11-28T21:17:01.455Z,31.79
2022-11-28T21:22:04.759Z,32.38
2022-11-28T21:27:10.370Z,32.68
2022-11-28T21:32:16.275Z,35.50
2022-11-28T21:37:19.765Z,31.68
2022-11-28T21:42:23.013Z,33.88
2022-11-28T21:47:27.737Z,33.38
2022-11-28T21:52:30.998Z,33.40
2022-11-28T21:57:34.254Z,32.48
2022-11-28T22:02:46.267Z,32.04
2022-11-28T22:07:52.244Z,31.50
2022-11-28T22:12:55.574Z,32.74
2022-11-28T22:18:00.279Z,33.39
2022-11-28T22:23:04.658Z,34.72
2022-11-28T22:28:08.739Z,34.10
2022-11-28T22:33:13.407Z,33.61
2022-11-28T22:38:17.999Z,33.79
2022-11-28T22:43:21.808Z,34.90
2022-11-28T22:48:27.253Z,33.51
2022-11-28T22:53:33.646Z,34.98
2022-11-28T22:58:42.285Z,35.50
2022-11-28T23:03:48.268Z,34.18
2022-11-28T23:08:51.730Z,34.97
2022-11-28T23:13:55.368Z,35.13
2022-11-28T23:19:01.564Z,34.03
2022-11-28T23:24:05.609Z,33.58
2022-11-28T23:29:09.846Z,33.40
2022-11-28T23:34:15.225Z,31.66
2022-11-28T23:39:22.977Z,30.73
2022-11-28T23:44:26.432Z,29.24
2022-11-28T23:49:34.431Z,37.91
2022-11-28T23:54:37.724Z,31.52
2022-11-28T23:59:40.957Z,30.79
